| time (UTC) | temp F | wind direction | speed knots | gust knots | rain 1hr in | rain 24hr in | rain mn in | humidity % | barometer mb |
| 20260510045016 | 63 | 198 | 0.0 | 1.7 | 0.00 | 0.00 | 0.00 | 86 | 1011.7 |
| 20260510044016 | 64 | 184 | 0.9 | 1.7 | 0.00 | 0.00 | 0.00 | 85 | 1011.6 |
| 20260510043016 | 64 | 279 | 0.0 | 3.5 | 0.00 | 0.00 | 0.00 | 85 | 1011.6 |
| 20260510042021 | 64 | 278 | 1.7 | 3.5 | 0.00 | 0.00 | 0.00 | 85 | 1011.5 |
| 20260510041016 | 64 | 273 | 0.9 | 2.6 | 0.00 | 0.00 | 0.00 | 85 | 1011.5 |
| 20260510040016 | 64 | 238 | 0.0 | 2.6 | 0.00 | 0.01 | 0.00 | 84 | 1011.4 |
| 20260510035016 | 64 | 285 | 0.0 | 2.6 | 0.00 | 0.01 | 0.00 | 84 | 1011.1 |
| 20260510034016 | 64 | 275 | 0.9 | 1.7 | 0.00 | 0.02 | 0.00 | 84 | 1011.0 |
| 20260510033036 | 64 | 275 | 0.9 | 1.7 | 0.00 | 0.03 | 0.00 | 84 | 1010.9 |
| 20260510032016 | 64 | 275 | 0.9 | 1.7 | 0.00 | 0.04 | 0.00 | 81 | 1010.9 |
| 20260510031036 | 64 | 275 | 0.0 | 1.7 | 0.00 | 0.04 | 0.00 | 80 | 1010.8 |
| 20260510030036 | 64 | 335 | 0.9 | 1.7 | 0.00 | 0.04 | 0.00 | 82 | 1010.8 |
| 20260510025016 | 64 | 57 | 0.0 | 0.9 | 0.00 | 0.04 | 0.00 | 79 | 1010.7 |
| 20260510024016 | 65 | 57 | 0.0 | 0.9 | 0.00 | 0.04 | 0.00 | 77 | 1010.5 |
| 20260510023016 | 65 | 0.0 | 0.0 | 0.00 | 0.04 | 0.00 | 77 | 1010.3 | |
| 20260510021015 | 67 | 0.0 | 0.0 | 0.00 | 0.04 | 0.00 | 74 | 1010.0 | |
| 20260510020016 | 67 | 0.0 | 0.0 | 0.00 | 0.04 | 0.00 | 70 | 1009.8 | |
| 20260510015016 | 68 | 0.0 | 0.0 | 0.00 | 0.04 | 0.00 | 69 | 1009.7 | |
| 20260510014016 | 69 | 0.0 | 0.0 | 0.00 | 0.04 | 0.00 | 69 | 1009.6 | |
| 20260510013019 | 71 | 57 | 0.0 | 0.9 | 0.00 | 0.04 | 0.00 | 67 | 1009.5 |
| 20260510012016 | 73 | 0.0 | 0.0 | 0.00 | 0.04 | 0.00 | 65 | 1009.3 | |
| 20260510011019 | 75 | 0.0 | 0.0 | 0.00 | 0.04 | 0.00 | 59 | 1009.2 | |
| 20260510010036 | 76 | 0.0 | 0.0 | 0.00 | 0.04 | 0.00 | 56 | 1009.1 | |
| 20260510005536 | 77 | 0.0 | 0.0 | 0.00 | 0.04 | 0.00 | 54 | 1009.1 | |
| 20260510004516 | 79 | 57 | 0.0 | 0.9 | 0.00 | 0.04 | 0.00 | 51 | 1009.0 |
| 20260510003516 | 81 | 57 | 0.0 | 0.9 | 0.00 | 0.04 | 0.00 | 51 | 1009.0 |
| 20260510002516 | 81 | 0.0 | 0.9 | 0.00 | 0.04 | 0.00 | 47 | 1009.0 | |
| 20260510001516 | 82 | 0.0 | 1.7 | 0.00 | 0.04 | 0.00 | 49 | 1008.9 | |
| 20260510000516 | 82 | 57 | 0.0 | 1.7 | 0.00 | 0.04 | 0.00 | 47 | 1008.9 |
| 20260509235521 | 82 | 57 | 0.0 | 1.7 | 0.00 | 0.04 | 0.00 | 42 | 1008.9 |
| 20260509234516 | 83 | 60 | 0.9 | 2.6 | 0.00 | 0.04 | 0.00 | 40 | 1008.8 |
| 20260509233518 | 83 | 63 | 1.7 | 3.5 | 0.00 | 0.04 | 0.00 | 37 | 1008.8 |
| 20260509232516 | 83 | 62 | 0.9 | 2.6 | 0.00 | 0.04 | 0.00 | 39 | 1008.8 |
| 20260509231516 | 84 | 53 | 1.7 | 3.5 | 0.00 | 0.04 | 0.00 | 36 | 1008.8 |
| 20260509230516 | 84 | 89 | 0.9 | 2.6 | 0.00 | 0.04 | 0.00 | 37 | 1008.8 |
| 20260509225516 | 84 | 53 | 0.9 | 1.7 | 0.00 | 0.04 | 0.00 | 41 | 1008.7 |
| 20260509224516 | 84 | 105 | 0.9 | 2.6 | 0.00 | 0.04 | 0.00 | 39 | 1008.8 |
| 20260509223516 | 84 | 128 | 0.9 | 2.6 | 0.00 | 0.04 | 0.00 | 39 | 1008.7 |
| 20260509222516 | 84 | 109 | 0.9 | 2.6 | 0.00 | 0.04 | 0.00 | 40 | 1008.7 |
| 20260509221516 | 84 | 117 | 0.9 | 4.3 | 0.00 | 0.04 | 0.00 | 39 | 1008.7 |
| 20260509220516 | 85 | 127 | 0.9 | 2.6 | 0.00 | 0.04 | 0.00 | 40 | 1008.6 |
| 20260509215516 | 84 | 61 | 0.9 | 3.5 | 0.00 | 0.04 | 0.00 | 34 | 1008.6 |
| 20260509214516 | 85 | 56 | 1.7 | 3.5 | 0.00 | 0.04 | 0.00 | 37 | 1008.7 |
| 20260509213516 | 85 | 134 | 0.9 | 2.6 | 0.00 | 0.04 | 0.00 | 41 | 1008.7 |
| 20260509212516 | 84 | 70 | 0.9 | 3.5 | 0.00 | 0.04 | 0.00 | 38 | 1008.9 |
| 20260509211516 | 85 | 111 | 0.9 | 3.5 | 0.00 | 0.04 | 0.00 | 36 | 1009.0 |
| 20260509210516 | 84 | 89 | 1.7 | 7.8 | 0.00 | 0.04 | 0.00 | 40 | 1009.0 |
| 20260509205516 | 85 | 118 | 0.9 | 3.5 | 0.00 | 0.04 | 0.00 | 40 | 1009.0 |
| 20260509204516 | 84 | 120 | 1.7 | 5.2 | 0.00 | 0.04 | 0.00 | 39 | 1009.1 |
| 20260509203536 | 84 | 44 | 1.7 | 3.5 | 0.00 | 0.04 | 0.00 | 38 | 1009.2 |
| 20260509202516 | 84 | 70 | 0.9 | 4.3 | 0.00 | 0.04 | 0.00 | 41 | 1009.3 |
| 20260509201516 | 84 | 103 | 0.9 | 3.5 | 0.00 | 0.04 | 0.00 | 40 | 1009.5 |
| 20260509200536 | 84 | 99 | 1.7 | 4.3 | 0.00 | 0.04 | 0.00 | 44 | 1009.6 |
| 20260509195516 | 84 | 146 | 0.9 | 4.3 | 0.00 | 0.04 | 0.00 | 48 | 1009.6 |
| 20260509194516 | 83 | 162 | 1.7 | 4.3 | 0.00 | 0.04 | 0.00 | 44 | 1009.8 |
| 20260509193516 | 83 | 155 | 2.6 | 6.1 | 0.00 | 0.04 | 0.00 | 47 | 1009.7 |
| 20260509192536 | 82 | 293 | 1.7 | 7.0 | 0.00 | 0.04 | 0.00 | 48 | 1009.8 |
| 20260509191516 | 82 | 88 | 2.6 | 6.1 | 0.00 | 0.04 | 0.00 | 50 | 1009.8 |
| 20260509190516 | 82 | 148 | 2.6 | 5.2 | 0.00 | 0.04 | 0.00 | 54 | 1009.9 |
| 20260509185516 | 82 | 148 | 2.6 | 5.2 | 0.00 | 0.04 | 0.00 | 55 | 1009.9 |
| 20260509184538 | 81 | 138 | 1.7 | 4.3 | 0.00 | 0.04 | 0.00 | 52 | 1010.1 |
| 20260509183516 | 82 | 63 | 2.6 | 3.5 | 0.00 | 0.04 | 0.00 | 53 | 1010.2 |
| 20260509182516 | 81 | 121 | 0.9 | 6.1 | 0.00 | 0.04 | 0.00 | 58 | 1010.3 |
| 20260509181536 | 81 | 149 | 2.6 | 7.0 | 0.00 | 0.04 | 0.00 | 61 | 1010.3 |
| 20260509180516 | 81 | 58 | 2.6 | 7.0 | 0.00 | 0.04 | 0.00 | 59 | 1010.4 |
| 20260509175516 | 80 | 211 | 0.9 | 4.3 | 0.00 | 0.04 | 0.00 | 63 | 1010.4 |
| 20260509174516 | 80 | 140 | 1.7 | 4.3 | 0.00 | 0.04 | 0.00 | 65 | 1010.5 |
| 20260509173656 | 79 | 66 | 2.6 | 5.2 | 0.00 | 0.04 | 0.00 | 64 | 1010.5 |
| 20260509172516 | 79 | 21 | 1.7 | 4.3 | 0.00 | 0.04 | 0.00 | 67 | 1010.6 |
| 20260509171516 | 79 | 321 | 1.7 | 4.3 | 0.00 | 0.04 | 0.00 | 67 | 1010.6 |
| 20260509170518 | 78 | 158 | 1.7 | 4.3 | 0.00 | 0.04 | 0.00 | 70 | 1010.5 |
| 20260509165515 | 78 | 257 | 2.6 | 5.2 | 0.00 | 0.04 | 0.00 | 71 | 1010.6 |
| 20260509164536 | 76 | 223 | 0.9 | 5.2 | 0.00 | 0.04 | 0.00 | 73 | 1010.7 |
| 20260509163516 | 76 | 242 | 1.7 | 5.2 | 0.00 | 0.04 | 0.00 | 73 | 1010.7 |
| 20260509162516 | 76 | 18 | 1.7 | 3.5 | 0.00 | 0.04 | 0.00 | 75 | 1010.8 |
| 20260509161516 | 75 | 297 | 0.9 | 5.2 | 0.00 | 0.04 | 0.00 | 75 | 1010.8 |
| 20260509160515 | 75 | 285 | 1.7 | 3.5 | 0.00 | 0.04 | 0.00 | 75 | 1010.8 |
| 20260509155516 | 74 | 281 | 0.9 | 2.6 | 0.00 | 0.04 | 0.00 | 76 | 1010.8 |
| 20260509154516 | 73 | 323 | 0.9 | 3.5 | 0.00 | 0.04 | 0.00 | 76 | 1010.8 |
| 20260509153535 | 73 | 252 | 1.7 | 4.3 | 0.00 | 0.04 | 0.00 | 77 | 1010.9 |
| 20260509152518 | 72 | 188 | 0.9 | 2.6 | 0.00 | 0.04 | 0.00 | 79 | 1010.8 |
| 20260509151516 | 72 | 227 | 0.9 | 3.5 | 0.00 | 0.04 | 0.00 | 78 | 1010.8 |
| 20260509150516 | 71 | 76 | 0.9 | 2.6 | 0.00 | 0.04 | 0.00 | 83 | 1010.8 |
| 20260509145516 | 70 | 162 | 0.9 | 2.6 | 0.00 | 0.04 | 0.00 | 85 | 1010.9 |
| 20260509144516 | 69 | 287 | 0.9 | 2.6 | 0.00 | 0.04 | 0.00 | 86 | 1010.9 |
| 20260509143516 | 67 | 22 | 0.9 | 2.6 | 0.00 | 0.04 | 0.00 | 89 | 1011.1 |
| 20260509142516 | 66 | 293 | 1.7 | 3.5 | 0.00 | 0.04 | 0.00 | 92 | 1011.1 |
| 20260509141516 | 64 | 306 | 1.7 | 3.5 | 0.00 | 0.04 | 0.00 | 96 | 1011.3 |
| 20260509140516 | 63 | 282 | 0.9 | 2.6 | 0.00 | 0.04 | 0.00 | 98 | 1011.2 |
| 20260509135516 | 63 | 311 | 0.9 | 2.6 | 0.00 | 0.04 | 0.00 | 98 | 1011.2 |
| 20260509134516 | 61 | 320 | 0.9 | 2.6 | 0.00 | 0.04 | 0.00 | 98 | 1011.2 |
| 20260509133516 | 60 | 302 | 0.9 | 1.7 | 0.00 | 0.04 | 0.00 | 98 | 1011.2 |
| 20260509132516 | 60 | 310 | 0.9 | 1.7 | 0.00 | 0.04 | 0.00 | 98 | 1011.0 |
| 20260509131516 | 59 | 345 | 0.0 | 1.7 | 0.00 | 0.04 | 0.00 | 98 | 1010.9 |
| 20260509130516 | 59 | 225 | 0.0 | 0.9 | 0.00 | 0.04 | 0.00 | 98 | 1010.8 |
| 20260509125516 | 58 | 225 | 0.0 | 1.7 | 0.00 | 0.04 | 0.00 | 98 | 1010.8 |
| 20260509124516 | 58 | 225 | 0.0 | 1.7 | 0.00 | 0.04 | 0.00 | 98 | 1010.7 |
| 20260509123516 | 57 | 225 | 0.9 | 1.7 | 0.00 | 0.04 | 0.00 | 98 | 1010.6 |
| 20260509122516 | 57 | 0.0 | 0.0 | 0.00 | 0.04 | 0.00 | 98 | 1010.4 | |
| 20260509121516 | 56 | 0.0 | 0.9 | 0.00 | 0.04 | 0.00 | 98 | 1010.3 | |
| 20260509120538 | 55 | 229 | 0.9 | 1.7 | 0.00 | 0.04 | 0.00 | 97 | 1010.1 |
| 20260509115516 | 55 | 229 | 0.9 | 1.7 | 0.00 | 0.04 | 0.00 | 97 | 1010.0 |
| 20260509114518 | 55 | 229 | 0.0 | 1.7 | 0.00 | 0.04 | 0.00 | 97 | 1009.9 |
| 20260509113535 | 55 | 0.0 | 0.9 | 0.00 | 0.04 | 0.00 | 97 | 1009.9 | |
| 20260509112516 | 55 | 229 | 0.9 | 0.9 | 0.00 | 0.04 | 0.00 | 97 | 1009.7 |
| 20260509111523 | 55 | 229 | 0.0 | 0.9 | 0.00 | 0.04 | 0.00 | 97 | 1009.7 |
| 20260509110516 | 55 | 229 | 0.0 | 1.7 | 0.00 | 0.04 | 0.00 | 97 | 1009.6 |
| 20260509105516 | 56 | 0.0 | 0.0 | 0.00 | 0.04 | 0.00 | 97 | 1009.4 | |
| 20260509104516 | 56 | 152 | 0.9 | 1.7 | 0.00 | 0.04 | 0.00 | 97 | 1009.3 |
| 20260509103624 | 56 | 152 | 0.0 | 0.9 | 0.00 | 0.04 | 0.00 | 97 | 1009.2 |
| 20260509102516 | 56 | 0.0 | 0.0 | 0.00 | 0.04 | 0.00 | 97 | 1009.2 | |
| 20260509101518 | 56 | 152 | 0.0 | 0.9 | 0.00 | 0.04 | 0.00 | 97 | 1009.2 |
| 20260509100516 | 56 | 152 | 0.9 | 1.7 | 0.00 | 0.04 | 0.00 | 97 | 1009.1 |
| 20260509095516 | 57 | 75 | 0.0 | 1.7 | 0.00 | 0.04 | 0.00 | 97 | 1009.1 |
| 20260509094516 | 57 | 64 | 0.9 | 1.7 | 0.00 | 0.04 | 0.00 | 97 | 1009.1 |
| 20260509093516 | 57 | 84 | 0.0 | 1.7 | 0.00 | 0.04 | 0.00 | 97 | 1009.0 |
| 20260509092518 | 58 | 0.0 | 0.0 | 0.00 | 0.04 | 0.00 | 97 | 1008.9 | |
| 20260509091536 | 58 | 118 | 0.0 | 0.9 | 0.00 | 0.04 | 0.00 | 97 | 1008.9 |
| 20260509090516 | 58 | 118 | 0.0 | 0.9 | 0.00 | 0.04 | 0.00 | 97 | 1008.9 |
| 20260509085516 | 58 | 0.0 | 0.0 | 0.00 | 0.04 | 0.00 | 97 | 1009.0 | |
| 20260509084516 | 58 | 0.0 | 0.0 | 0.00 | 0.04 | 0.00 | 97 | 1009.0 | |
| 20260509083516 | 58 | 118 | 0.0 | 0.9 | 0.00 | 0.04 | 0.00 | 97 | 1009.2 |
| 20260509082516 | 59 | 118 | 0.0 | 1.7 | 0.00 | 0.04 | 0.00 | 97 | 1009.2 |
| 20260509081516 | 59 | 118 | 0.0 | 1.7 | 0.00 | 0.04 | 0.00 | 97 | 1009.2 |
| 20260509080518 | 59 | 10 | 0.9 | 1.7 | 0.00 | 0.04 | 0.00 | 97 | 1009.3 |
| 20260509075516 | 58 | 9 | 0.9 | 2.6 | 0.00 | 0.04 | 0.00 | 97 | 1009.4 |
| 20260509074518 | 58 | 352 | 0.0 | 0.9 | 0.00 | 0.04 | 0.00 | 97 | 1009.4 |
| 20260509073536 | 58 | 352 | 0.9 | 1.7 | 0.00 | 0.04 | 0.00 | 96 | 1009.6 |
| 20260509072556 | 58 | 312 | 0.9 | 2.6 | 0.00 | 0.04 | 0.00 | 96 | 1009.7 |
| 20260509071536 | 58 | 210 | 0.0 | 1.7 | 0.00 | 0.04 | 0.00 | 96 | 1009.7 |
| 20260509070536 | 58 | 210 | 0.0 | 0.9 | 0.00 | 0.04 | 0.00 | 96 | 1009.7 |
| 20260509065516 | 58 | 210 | 0.0 | 0.9 | 0.00 | 0.04 | 0.00 | 96 | 1009.7 |
| 20260509064516 | 58 | 210 | 0.0 | 0.9 | 0.00 | 0.04 | 0.00 | 96 | 1009.5 |
| 20260509063536 | 59 | 241 | 0.9 | 1.7 | 0.00 | 0.04 | 0.00 | 95 | 1009.3 |
| 20260509062516 | 59 | 9 | 0.0 | 1.7 | 0.00 | 0.04 | 0.00 | 96 | 1009.2 |
| 20260509061516 | 60 | 0.0 | 0.0 | 0.00 | 0.04 | 0.00 | 96 | 1009.1 | |
| 20260509060521 | 60 | 0.0 | 0.0 | 0.00 | 0.04 | 0.00 | 96 | 1009.2 | |
| 20260509055516 | 60 | 8 | 0.9 | 1.7 | 0.00 | 0.04 | 0.00 | 95 | 1009.4 |
| 20260509054538 | 60 | 348 | 0.9 | 1.7 | 0.00 | 0.04 | 0.00 | 95 | 1009.5 |
| 20260509053516 | 60 | 242 | 0.9 | 1.7 | 0.00 | 0.04 | 0.00 | 95 | 1009.7 |
| 20260509052516 | 61 | 286 | 1.7 | 1.7 | 0.00 | 0.04 | 0.00 | 94 | 1009.8 |
| 20260509051536 | 61 | 257 | 0.0 | 1.7 | 0.00 | 0.04 | 0.00 | 94 | 1010.0 |
| 20260509050516 | 61 | 317 | 0.9 | 2.6 | 0.01 | 0.04 | 0.00 | 94 | 1010.1 |
| 20260509045516 | 61 | 102 | 0.9 | 2.6 | 0.01 | 0.04 | 0.04 | 94 | 1010.1 |